sensor_id;sensor_type;location;lat;lon;timestamp;P1;durP1;ratioP1;P2;durP2;ratioP2
36597;SDS011;22607;49.550;11.940;2024-02-16T00:01:05;8.70;;;2.45;;
36597;SDS011;22607;49.550;11.940;2024-02-16T00:03:32;7.63;;;2.30;;
36597;SDS011;22607;49.550;11.940;2024-02-16T00:05:59;9.20;;;2.40;;
36597;SDS011;22607;49.550;11.940;2024-02-16T00:08:26;7.47;;;1.80;;
36597;SDS011;22607;49.550;11.940;2024-02-16T00:10:52;7.05;;;2.30;;
36597;SDS011;22607;49.550;11.940;2024-02-16T00:13:19;8.88;;;3.00;;
36597;SDS011;22607;49.550;11.940;2024-02-16T00:15:47;7.03;;;1.90;;
36597;SDS011;22607;49.550;11.940;2024-02-16T00:18:14;7.40;;;2.20;;
36597;SDS011;22607;49.550;11.940;2024-02-16T00:20:41;8.05;;;2.88;;
36597;SDS011;22607;49.550;11.940;2024-02-16T00:23:08;9.40;;;3.00;;
36597;SDS011;22607;49.550;11.940;2024-02-16T00:25:35;9.52;;;2.50;;
36597;SDS011;22607;49.550;11.940;2024-02-16T00:28:05;9.05;;;2.53;;
36597;SDS011;22607;49.550;11.940;2024-02-16T00:30:32;12.55;;;3.70;;
36597;SDS011;22607;49.550;11.940;2024-02-16T00:33:01;24.80;;;5.10;;
36597;SDS011;22607;49.550;11.940;2024-02-16T00:35:30;17.13;;;4.43;;
36597;SDS011;22607;49.550;11.940;2024-02-16T00:38:01;9.47;;;3.50;;
36597;SDS011;22607;49.550;11.940;2024-02-16T00:40:28;21.88;;;5.72;;
36597;SDS011;22607;49.550;11.940;2024-02-16T00:42:55;11.65;;;4.43;;
36597;SDS011;22607;49.550;11.940;2024-02-16T00:45:22;14.75;;;5.47;;
36597;SDS011;22607;49.550;11.940;2024-02-16T00:47:49;13.48;;;3.90;;
36597;SDS011;22607;49.550;11.940;2024-02-16T00:50:16;14.68;;;4.53;;
36597;SDS011;22607;49.550;11.940;2024-02-16T00:52:42;14.43;;;3.95;;
36597;SDS011;22607;49.550;11.940;2024-02-16T00:55:14;11.02;;;3.75;;
36597;SDS011;22607;49.550;11.940;2024-02-16T00:57:44;9.55;;;3.53;;
36597;SDS011;22607;49.550;11.940;2024-02-16T01:00:11;13.75;;;3.60;;
36597;SDS011;22607;49.550;11.940;2024-02-16T01:02:38;8.82;;;2.67;;
36597;SDS011;22607;49.550;11.940;2024-02-16T01:05:05;10.55;;;2.78;;
36597;SDS011;22607;49.550;11.940;2024-02-16T01:07:33;11.05;;;2.90;;
36597;SDS011;22607;49.550;11.940;2024-02-16T01:10:00;7.53;;;2.35;;
36597;SDS011;22607;49.550;11.940;2024-02-16T01:12:30;7.47;;;2.38;;
36597;SDS011;22607;49.550;11.940;2024-02-16T01:15:00;8.45;;;2.58;;
36597;SDS011;22607;49.550;11.940;2024-02-16T01:17:28;8.23;;;2.40;;
36597;SDS011;22607;49.550;11.940;2024-02-16T01:19:56;7.78;;;2.40;;
36597;SDS011;22607;49.550;11.940;2024-02-16T01:22:24;8.52;;;2.65;;
36597;SDS011;22607;49.550;11.940;2024-02-16T01:24:51;9.98;;;3.10;;
36597;SDS011;22607;49.550;11.940;2024-02-16T01:27:18;14.25;;;4.13;;
36597;SDS011;22607;49.550;11.940;2024-02-16T01:29:45;17.65;;;5.38;;
36597;SDS011;22607;49.550;11.940;2024-02-16T01:32:14;25.02;;;4.72;;
36597;SDS011;22607;49.550;11.940;2024-02-16T01:34:41;26.10;;;4.25;;
36597;SDS011;22607;49.550;11.940;2024-02-16T01:37:10;23.92;;;4.72;;
36597;SDS011;22607;49.550;11.940;2024-02-16T01:39:37;14.77;;;4.10;;
36597;SDS011;22607;49.550;11.940;2024-02-16T01:42:04;15.02;;;4.03;;
36597;SDS011;22607;49.550;11.940;2024-02-16T01:44:31;39.75;;;6.32;;
36597;SDS011;22607;49.550;11.940;2024-02-16T01:46:57;24.05;;;4.63;;
36597;SDS011;22607;49.550;11.940;2024-02-16T01:49:24;15.20;;;4.10;;
36597;SDS011;22607;49.550;11.940;2024-02-16T01:51:51;33.45;;;5.18;;
36597;SDS011;22607;49.550;11.940;2024-02-16T01:54:20;11.25;;;3.70;;
36597;SDS011;22607;49.550;11.940;2024-02-16T01:56:47;9.63;;;3.90;;
36597;SDS011;22607;49.550;11.940;2024-02-16T01:59:15;10.13;;;4.20;;
36597;SDS011;22607;49.550;11.940;2024-02-16T02:01:43;10.13;;;3.42;;
36597;SDS011;22607;49.550;11.940;2024-02-16T02:04:10;10.63;;;3.50;;
36597;SDS011;22607;49.550;11.940;2024-02-16T02:06:37;10.18;;;3.47;;
36597;SDS011;22607;49.550;11.940;2024-02-16T02:09:05;10.45;;;2.92;;
36597;SDS011;22607;49.550;11.940;2024-02-16T02:11:32;10.90;;;3.40;;
36597;SDS011;22607;49.550;11.940;2024-02-16T02:13:59;13.75;;;3.45;;
36597;SDS011;22607;49.550;11.940;2024-02-16T02:16:26;10.00;;;3.05;;
36597;SDS011;22607;49.550;11.940;2024-02-16T02:19:03;8.57;;;2.88;;
36597;SDS011;22607;49.550;11.940;2024-02-16T02:21:30;9.82;;;3.50;;
36597;SDS011;22607;49.550;11.940;2024-02-16T02:23:59;8.85;;;2.80;;
36597;SDS011;22607;49.550;11.940;2024-02-16T02:26:26;9.10;;;3.63;;
36597;SDS011;22607;49.550;11.940;2024-02-16T02:28:52;8.60;;;3.05;;
36597;SDS011;22607;49.550;11.940;2024-02-16T02:31:19;7.97;;;2.88;;
36597;SDS011;22607;49.550;11.940;2024-02-16T02:33:46;8.23;;;2.95;;
36597;SDS011;22607;49.550;11.940;2024-02-16T02:36:15;8.63;;;2.90;;
36597;SDS011;22607;49.550;11.940;2024-02-16T02:38:43;7.70;;;2.58;;
36597;SDS011;22607;49.550;11.940;2024-02-16T02:41:10;8.10;;;2.50;;
36597;SDS011;22607;49.550;11.940;2024-02-16T02:43:37;9.27;;;3.28;;
36597;SDS011;22607;49.550;11.940;2024-02-16T02:46:04;8.88;;;2.42;;
36597;SDS011;22607;49.550;11.940;2024-02-16T02:48:31;7.93;;;2.72;;
36597;SDS011;22607;49.550;11.940;2024-02-16T02:50:58;8.35;;;2.40;;
36597;SDS011;22607;49.550;11.940;2024-02-16T02:53:27;8.18;;;2.80;;
36597;SDS011;22607;49.550;11.940;2024-02-16T02:55:59;7.78;;;2.80;;
36597;SDS011;22607;49.550;11.940;2024-02-16T02:58:25;7.70;;;2.70;;
36597;SDS011;22607;49.550;11.940;2024-02-16T03:00:52;8.25;;;2.40;;
36597;SDS011;22607;49.550;11.940;2024-02-16T03:03:19;8.57;;;2.88;;
36597;SDS011;22607;49.550;11.940;2024-02-16T03:05:47;9.25;;;2.95;;
36597;SDS011;22607;49.550;11.940;2024-02-16T03:08:15;9.70;;;3.10;;
36597;SDS011;22607;49.550;11.940;2024-02-16T03:10:42;10.63;;;3.67;;
36597;SDS011;22607;49.550;11.940;2024-02-16T03:13:10;8.35;;;3.50;;
36597;SDS011;22607;49.550;11.940;2024-02-16T03:15:39;11.93;;;5.05;;
36597;SDS011;22607;49.550;11.940;2024-02-16T03:18:07;12.32;;;4.95;;
36597;SDS011;22607;49.550;11.940;2024-02-16T03:20:37;10.32;;;4.20;;
36597;SDS011;22607;49.550;11.940;2024-02-16T03:23:04;12.40;;;5.07;;
36597;SDS011;22607;49.550;11.940;2024-02-16T03:25:33;9.30;;;3.85;;
36597;SDS011;22607;49.550;11.940;2024-02-16T03:28:03;11.57;;;4.05;;
36597;SDS011;22607;49.550;11.940;2024-02-16T03:30:30;10.32;;;3.75;;
36597;SDS011;22607;49.550;11.940;2024-02-16T03:32:58;9.43;;;3.45;;
36597;SDS011;22607;49.550;11.940;2024-02-16T03:35:24;8.93;;;3.40;;
36597;SDS011;22607;49.550;11.940;2024-02-16T03:37:52;10.32;;;3.40;;
36597;SDS011;22607;49.550;11.940;2024-02-16T03:40:18;8.75;;;3.20;;
36597;SDS011;22607;49.550;11.940;2024-02-16T03:42:46;8.10;;;3.20;;
36597;SDS011;22607;49.550;11.940;2024-02-16T03:45:18;7.75;;;2.65;;
36597;SDS011;22607;49.550;11.940;2024-02-16T03:47:49;8.43;;;2.42;;
36597;SDS011;22607;49.550;11.940;2024-02-16T03:50:22;8.50;;;3.28;;
36597;SDS011;22607;49.550;11.940;2024-02-16T03:52:49;8.20;;;3.20;;
36597;SDS011;22607;49.550;11.940;2024-02-16T03:55:16;8.15;;;2.97;;
36597;SDS011;22607;49.550;11.940;2024-02-16T03:57:44;7.00;;;2.55;;
36597;SDS011;22607;49.550;11.940;2024-02-16T04:00:11;8.65;;;3.13;;
36597;SDS011;22607;49.550;11.940;2024-02-16T04:02:41;8.13;;;3.13;;
36597;SDS011;22607;49.550;11.940;2024-02-16T04:05:09;8.10;;;2.67;;
36597;SDS011;22607;49.550;11.940;2024-02-16T04:07:37;7.50;;;2.50;;
36597;SDS011;22607;49.550;11.940;2024-02-16T04:10:04;8.27;;;3.15;;
36597;SDS011;22607;49.550;11.940;2024-02-16T04:12:33;7.20;;;2.33;;
36597;SDS011;22607;49.550;11.940;2024-02-16T04:15:00;7.47;;;2.75;;
36597;SDS011;22607;49.550;11.940;2024-02-16T04:17:27;8.10;;;2.83;;
36597;SDS011;22607;49.550;11.940;2024-02-16T04:19:53;8.48;;;3.15;;
36597;SDS011;22607;49.550;11.940;2024-02-16T04:22:20;7.57;;;2.55;;
36597;SDS011;22607;49.550;11.940;2024-02-16T04:24:47;8.70;;;2.63;;
36597;SDS011;22607;49.550;11.940;2024-02-16T04:27:15;8.82;;;2.80;;
36597;SDS011;22607;49.550;11.940;2024-02-16T04:29:45;7.60;;;2.40;;
36597;SDS011;22607;49.550;11.940;2024-02-16T04:32:11;10.52;;;2.88;;
36597;SDS011;22607;49.550;11.940;2024-02-16T04:34:38;9.65;;;3.65;;
36597;SDS011;22607;49.550;11.940;2024-02-16T04:37:05;6.95;;;2.20;;
36597;SDS011;22607;49.550;11.940;2024-02-16T04:39:32;8.32;;;2.92;;
36597;SDS011;22607;49.550;11.940;2024-02-16T04:41:59;9.05;;;3.15;;
36597;SDS011;22607;49.550;11.940;2024-02-16T04:44:25;6.97;;;2.40;;
36597;SDS011;22607;49.550;11.940;2024-02-16T04:46:53;6.80;;;2.33;;
36597;SDS011;22607;49.550;11.940;2024-02-16T04:49:19;7.00;;;2.15;;
36597;SDS011;22607;49.550;11.940;2024-02-16T04:51:48;6.65;;;2.35;;
36597;SDS011;22607;49.550;11.940;2024-02-16T04:54:14;7.45;;;2.20;;
36597;SDS011;22607;49.550;11.940;2024-02-16T04:56:42;6.72;;;2.30;;
36597;SDS011;22607;49.550;11.940;2024-02-16T04:59:08;7.13;;;2.33;;
36597;SDS011;22607;49.550;11.940;2024-02-16T05:01:35;6.90;;;1.80;;
36597;SDS011;22607;49.550;11.940;2024-02-16T05:04:02;8.95;;;2.70;;
36597;SDS011;22607;49.550;11.940;2024-02-16T05:06:32;5.00;;;1.70;;
36597;SDS011;22607;49.550;11.940;2024-02-16T05:08:59;7.95;;;2.30;;
36597;SDS011;22607;49.550;11.940;2024-02-16T05:11:26;7.55;;;2.75;;
36597;SDS011;22607;49.550;11.940;2024-02-16T05:13:54;6.90;;;2.53;;
36597;SDS011;22607;49.550;11.940;2024-02-16T05:16:21;8.27;;;2.88;;
36597;SDS011;22607;49.550;11.940;2024-02-16T05:18:50;8.05;;;2.50;;
36597;SDS011;22607;49.550;11.940;2024-02-16T05:21:17;6.82;;;2.45;;
36597;SDS011;22607;49.550;11.940;2024-02-16T05:23:44;8.90;;;3.03;;
36597;SDS011;22607;49.550;11.940;2024-02-16T05:26:10;8.13;;;3.20;;
36597;SDS011;22607;49.550;11.940;2024-02-16T05:28:37;6.47;;;2.20;;
36597;SDS011;22607;49.550;11.940;2024-02-16T05:31:15;7.45;;;2.65;;
36597;SDS011;22607;49.550;11.940;2024-02-16T05:33:47;6.95;;;2.38;;
36597;SDS011;22607;49.550;11.940;2024-02-16T05:36:20;5.75;;;1.80;;
36597;SDS011;22607;49.550;11.940;2024-02-16T05:38:51;7.03;;;2.30;;
36597;SDS011;22607;49.550;11.940;2024-02-16T05:41:18;6.65;;;2.30;;
36597;SDS011;22607;49.550;11.940;2024-02-16T05:43:45;6.53;;;2.28;;
36597;SDS011;22607;49.550;11.940;2024-02-16T05:46:17;8.00;;;2.38;;
36597;SDS011;22607;49.550;11.940;2024-02-16T05:48:45;6.90;;;2.22;;
36597;SDS011;22607;49.550;11.940;2024-02-16T05:51:13;6.85;;;2.40;;
36597;SDS011;22607;49.550;11.940;2024-02-16T05:53:41;9.52;;;2.95;;
36597;SDS011;22607;49.550;11.940;2024-02-16T05:56:10;8.75;;;3.03;;
36597;SDS011;22607;49.550;11.940;2024-02-16T05:58:37;8.57;;;3.25;;
36597;SDS011;22607;49.550;11.940;2024-02-16T06:01:04;8.25;;;2.95;;
36597;SDS011;22607;49.550;11.940;2024-02-16T06:03:32;7.38;;;2.40;;
36597;SDS011;22607;49.550;11.940;2024-02-16T06:05:59;8.00;;;2.80;;
36597;SDS011;22607;49.550;11.940;2024-02-16T06:08:26;9.77;;;3.95;;
36597;SDS011;22607;49.550;11.940;2024-02-16T06:10:55;7.80;;;2.72;;
36597;SDS011;22607;49.550;11.940;2024-02-16T06:13:22;7.43;;;2.72;;
36597;SDS011;22607;49.550;11.940;2024-02-16T06:15:49;8.23;;;2.60;;
36597;SDS011;22607;49.550;11.940;2024-02-16T06:18:16;7.78;;;2.85;;
36597;SDS011;22607;49.550;11.940;2024-02-16T06:20:43;6.88;;;2.17;;
36597;SDS011;22607;49.550;11.940;2024-02-16T06:23:09;7.30;;;2.55;;
36597;SDS011;22607;49.550;11.940;2024-02-16T06:25:36;7.47;;;2.60;;
36597;SDS011;22607;49.550;11.940;2024-02-16T06:28:03;9.43;;;3.05;;
36597;SDS011;22607;49.550;11.940;2024-02-16T06:30:31;10.88;;;3.40;;
36597;SDS011;22607;49.550;11.940;2024-02-16T06:32:57;8.63;;;3.13;;
36597;SDS011;22607;49.550;11.940;2024-02-16T06:35:25;8.63;;;3.55;;
36597;SDS011;22607;49.550;11.940;2024-02-16T06:37:52;9.70;;;3.53;;
36597;SDS011;22607;49.550;11.940;2024-02-16T06:40:20;8.18;;;3.08;;
36597;SDS011;22607;49.550;11.940;2024-02-16T06:42:47;8.02;;;3.03;;
36597;SDS011;22607;49.550;11.940;2024-02-16T06:45:14;8.10;;;2.72;;
36597;SDS011;22607;49.550;11.940;2024-02-16T06:47:44;9.07;;;3.22;;
36597;SDS011;22607;49.550;11.940;2024-02-16T06:50:11;7.85;;;2.65;;
36597;SDS011;22607;49.550;11.940;2024-02-16T06:52:38;7.95;;;2.10;;
36597;SDS011;22607;49.550;11.940;2024-02-16T06:55:06;6.47;;;1.90;;
36597;SDS011;22607;49.550;11.940;2024-02-16T06:57:33;8.35;;;2.90;;
36597;SDS011;22607;49.550;11.940;2024-02-16T07:00:00;7.90;;;2.40;;
36597;SDS011;22607;49.550;11.940;2024-02-16T07:02:30;7.78;;;3.35;;
36597;SDS011;22607;49.550;11.940;2024-02-16T07:04:57;10.23;;;3.85;;
36597;SDS011;22607;49.550;11.940;2024-02-16T07:07:24;9.23;;;3.80;;
36597;SDS011;22607;49.550;11.940;2024-02-16T07:09:52;9.68;;;4.07;;
36597;SDS011;22607;49.550;11.940;2024-02-16T07:12:19;7.47;;;2.83;;
36597;SDS011;22607;49.550;11.940;2024-02-16T07:14:46;8.20;;;2.60;;
36597;SDS011;22607;49.550;11.940;2024-02-16T07:17:16;7.95;;;2.90;;
36597;SDS011;22607;49.550;11.940;2024-02-16T07:19:45;7.90;;;3.22;;
36597;SDS011;22607;49.550;11.940;2024-02-16T07:22:11;8.27;;;2.50;;
36597;SDS011;22607;49.550;11.940;2024-02-16T07:24:39;6.85;;;2.20;;
36597;SDS011;22607;49.550;11.940;2024-02-16T07:27:06;6.30;;;2.25;;
36597;SDS011;22607;49.550;11.940;2024-02-16T07:29:32;9.77;;;2.83;;
36597;SDS011;22607;49.550;11.940;2024-02-16T07:32:00;10.32;;;3.80;;
36597;SDS011;22607;49.550;11.940;2024-02-16T07:34:27;15.93;;;7.68;;
36597;SDS011;22607;49.550;11.940;2024-02-16T07:36:55;14.55;;;6.15;;
36597;SDS011;22607;49.550;11.940;2024-02-16T07:39:23;9.15;;;4.18;;
36597;SDS011;22607;49.550;11.940;2024-02-16T07:41:52;9.90;;;3.70;;
36597;SDS011;22607;49.550;11.940;2024-02-16T07:44:18;8.60;;;3.47;;
36597;SDS011;22607;49.550;11.940;2024-02-16T07:46:46;10.80;;;4.40;;
36597;SDS011;22607;49.550;11.940;2024-02-16T07:49:14;11.00;;;4.03;;
36597;SDS011;22607;49.550;11.940;2024-02-16T07:51:40;9.48;;;3.97;;
36597;SDS011;22607;49.550;11.940;2024-02-16T07:54:08;13.60;;;5.88;;
36597;SDS011;22607;49.550;11.940;2024-02-16T07:56:35;10.05;;;4.63;;
36597;SDS011;22607;49.550;11.940;2024-02-16T07:59:02;16.33;;;7.38;;
36597;SDS011;22607;49.550;11.940;2024-02-16T08:01:29;13.13;;;7.35;;
36597;SDS011;22607;49.550;11.940;2024-02-16T08:03:56;16.42;;;9.73;;
36597;SDS011;22607;49.550;11.940;2024-02-16T08:06:33;15.68;;;8.18;;
36597;SDS011;22607;49.550;11.940;2024-02-16T08:09:00;13.27;;;6.00;;
36597;SDS011;22607;49.550;11.940;2024-02-16T08:11:27;16.70;;;7.65;;
36597;SDS011;22607;49.550;11.940;2024-02-16T08:13:56;13.30;;;7.20;;
36597;SDS011;22607;49.550;11.940;2024-02-16T08:16:31;16.48;;;8.60;;
36597;SDS011;22607;49.550;11.940;2024-02-16T08:18:57;12.73;;;6.25;;
36597;SDS011;22607;49.550;11.940;2024-02-16T08:21:27;13.65;;;6.95;;
36597;SDS011;22607;49.550;11.940;2024-02-16T08:23:54;10.93;;;5.45;;
36597;SDS011;22607;49.550;11.940;2024-02-16T08:26:21;10.13;;;4.65;;
36597;SDS011;22607;49.550;11.940;2024-02-16T08:28:48;10.30;;;5.35;;
36597;SDS011;22607;49.550;11.940;2024-02-16T08:31:15;10.73;;;4.90;;
36597;SDS011;22607;49.550;11.940;2024-02-16T08:33:44;12.95;;;6.03;;
36597;SDS011;22607;49.550;11.940;2024-02-16T08:36:16;9.90;;;4.13;;
36597;SDS011;22607;49.550;11.940;2024-02-16T08:38:43;9.90;;;4.70;;
36597;SDS011;22607;49.550;11.940;2024-02-16T08:41:10;8.02;;;3.83;;
36597;SDS011;22607;49.550;11.940;2024-02-16T08:43:37;8.75;;;3.28;;
36597;SDS011;22607;49.550;11.940;2024-02-16T08:46:04;8.80;;;3.72;;
36597;SDS011;22607;49.550;11.940;2024-02-16T08:48:30;8.85;;;3.60;;
36597;SDS011;22607;49.550;11.940;2024-02-16T08:50:57;11.73;;;4.00;;
36597;SDS011;22607;49.550;11.940;2024-02-16T08:53:24;9.68;;;3.65;;
36597;SDS011;22607;49.550;11.940;2024-02-16T08:55:53;8.95;;;4.20;;
36597;SDS011;22607;49.550;11.940;2024-02-16T08:58:21;10.00;;;4.28;;
36597;SDS011;22607;49.550;11.940;2024-02-16T09:00:50;8.00;;;3.72;;
36597;SDS011;22607;49.550;11.940;2024-02-16T09:03:17;9.60;;;3.80;;
36597;SDS011;22607;49.550;11.940;2024-02-16T09:05:44;10.65;;;4.68;;
36597;SDS011;22607;49.550;11.940;2024-02-16T09:08:13;9.07;;;3.88;;
36597;SDS011;22607;49.550;11.940;2024-02-16T09:10:40;10.75;;;5.05;;
36597;SDS011;22607;49.550;11.940;2024-02-16T09:13:06;10.52;;;5.22;;
36597;SDS011;22607;49.550;11.940;2024-02-16T09:15:37;12.40;;;6.43;;
36597;SDS011;22607;49.550;11.940;2024-02-16T09:18:04;26.55;;;8.73;;
36597;SDS011;22607;49.550;11.940;2024-02-16T09:20:33;10.35;;;5.32;;
36597;SDS011;22607;49.550;11.940;2024-02-16T09:22:59;12.13;;;5.22;;
36597;SDS011;22607;49.550;11.940;2024-02-16T09:25:28;9.88;;;4.20;;
36597;SDS011;22607;49.550;11.940;2024-02-16T09:27:55;10.60;;;4.25;;
36597;SDS011;22607;49.550;11.940;2024-02-16T09:30:22;14.82;;;4.22;;
36597;SDS011;22607;49.550;11.940;2024-02-16T09:32:48;11.35;;;4.97;;
36597;SDS011;22607;49.550;11.940;2024-02-16T09:35:16;9.60;;;4.53;;
36597;SDS011;22607;49.550;11.940;2024-02-16T09:37:44;8.30;;;3.80;;
36597;SDS011;22607;49.550;11.940;2024-02-16T09:40:13;9.13;;;3.78;;
36597;SDS011;22607;49.550;11.940;2024-02-16T09:42:40;8.60;;;3.67;;
36597;SDS011;22607;49.550;11.940;2024-02-16T09:45:07;8.50;;;3.00;;
36597;SDS011;22607;49.550;11.940;2024-02-16T09:47:40;7.93;;;3.00;;
36597;SDS011;22607;49.550;11.940;2024-02-16T09:50:19;6.97;;;2.37;;
36597;SDS011;22607;49.550;11.940;2024-02-16T09:52:51;8.13;;;2.40;;
36597;SDS011;22607;49.550;11.940;2024-02-16T09:55:18;7.55;;;2.80;;
36597;SDS011;22607;49.550;11.940;2024-02-16T10:00:34;8.23;;;2.35;;
36597;SDS011;22607;49.550;11.940;2024-02-16T10:03:08;8.30;;;2.80;;
36597;SDS011;22607;49.550;11.940;2024-02-16T10:05:36;8.25;;;2.97;;
36597;SDS011;22607;49.550;11.940;2024-02-16T10:08:13;8.35;;;2.83;;
36597;SDS011;22607;49.550;11.940;2024-02-16T10:10:40;8.85;;;3.53;;
36597;SDS011;22607;49.550;11.940;2024-02-16T10:13:07;8.52;;;3.63;;
36597;SDS011;22607;49.550;11.940;2024-02-16T10:15:37;9.95;;;3.33;;
36597;SDS011;22607;49.550;11.940;2024-02-16T10:18:12;8.65;;;3.38;;
36597;SDS011;22607;49.550;11.940;2024-02-16T10:20:40;9.18;;;3.83;;
36597;SDS011;22607;49.550;11.940;2024-02-16T10:23:11;9.00;;;3.70;;
36597;SDS011;22607;49.550;11.940;2024-02-16T10:25:39;9.02;;;3.80;;
36597;SDS011;22607;49.550;11.940;2024-02-16T10:28:10;8.88;;;3.90;;
36597;SDS011;22607;49.550;11.940;2024-02-16T10:30:44;8.43;;;3.67;;
36597;SDS011;22607;49.550;11.940;2024-02-16T10:33:13;9.68;;;3.17;;
36597;SDS011;22607;49.550;11.940;2024-02-16T10:35:43;9.63;;;3.75;;
36597;SDS011;22607;49.550;11.940;2024-02-16T10:38:10;9.15;;;4.00;;
36597;SDS011;22607;49.550;11.940;2024-02-16T10:40:39;8.32;;;3.60;;
36597;SDS011;22607;49.550;11.940;2024-02-16T10:43:08;9.07;;;4.00;;
36597;SDS011;22607;49.550;11.940;2024-02-16T10:45:36;8.20;;;3.42;;
36597;SDS011;22607;49.550;11.940;2024-02-16T10:48:05;9.35;;;3.50;;
36597;SDS011;22607;49.550;11.940;2024-02-16T10:50:35;9.73;;;3.78;;
36597;SDS011;22607;49.550;11.940;2024-02-16T10:53:11;10.50;;;4.20;;
36597;SDS011;22607;49.550;11.940;2024-02-16T10:55:42;11.57;;;4.60;;
36597;SDS011;22607;49.550;11.940;2024-02-16T10:58:10;9.95;;;3.70;;
36597;SDS011;22607;49.550;11.940;2024-02-16T11:00:54;8.75;;;4.10;;
36597;SDS011;22607;49.550;11.940;2024-02-16T11:03:25;9.13;;;3.58;;
36597;SDS011;22607;49.550;11.940;2024-02-16T11:05:55;8.23;;;3.78;;
36597;SDS011;22607;49.550;11.940;2024-02-16T11:08:25;9.23;;;3.60;;
36597;SDS011;22607;49.550;11.940;2024-02-16T11:10:55;8.00;;;3.13;;
36597;SDS011;22607;49.550;11.940;2024-02-16T11:13:32;8.55;;;3.05;;
36597;SDS011;22607;49.550;11.940;2024-02-16T11:16:06;8.38;;;3.00;;
36597;SDS011;22607;49.550;11.940;2024-02-16T11:18:39;8.10;;;3.28;;
36597;SDS011;22607;49.550;11.940;2024-02-16T11:21:16;7.75;;;3.33;;
36597;SDS011;22607;49.550;11.940;2024-02-16T11:23:44;8.35;;;2.92;;
36597;SDS011;22607;49.550;11.940;2024-02-16T11:26:11;8.18;;;3.10;;
36597;SDS011;22607;49.550;11.940;2024-02-16T11:28:50;8.02;;;3.22;;
36597;SDS011;22607;49.550;11.940;2024-02-16T11:31:17;8.75;;;3.30;;
36597;SDS011;22607;49.550;11.940;2024-02-16T11:33:44;9.55;;;3.38;;
36597;SDS011;22607;49.550;11.940;2024-02-16T11:36:13;8.32;;;3.35;;
36597;SDS011;22607;49.550;11.940;2024-02-16T11:38:42;7.72;;;3.30;;
36597;SDS011;22607;49.550;11.940;2024-02-16T11:41:08;9.65;;;3.50;;
36597;SDS011;22607;49.550;11.940;2024-02-16T11:43:36;8.68;;;3.38;;
36597;SDS011;22607;49.550;11.940;2024-02-16T11:46:12;7.28;;;3.03;;
36597;SDS011;22607;49.550;11.940;2024-02-16T11:48:45;9.32;;;3.63;;
36597;SDS011;22607;49.550;11.940;2024-02-16T11:51:14;9.23;;;3.70;;
36597;SDS011;22607;49.550;11.940;2024-02-16T11:53:44;10.32;;;4.10;;
36597;SDS011;22607;49.550;11.940;2024-02-16T11:56:21;8.98;;;3.85;;
36597;SDS011;22607;49.550;11.940;2024-02-16T11:58:52;9.23;;;3.72;;
36597;SDS011;22607;49.550;11.940;2024-02-16T12:01:19;9.27;;;4.05;;
36597;SDS011;22607;49.550;11.940;2024-02-16T12:03:48;8.60;;;3.83;;
36597;SDS011;22607;49.550;11.940;2024-02-16T12:06:20;9.45;;;3.75;;
36597;SDS011;22607;49.550;11.940;2024-02-16T12:08:51;9.55;;;4.38;;
36597;SDS011;22607;49.550;11.940;2024-02-16T12:11:20;10.48;;;4.82;;
36597;SDS011;22607;49.550;11.940;2024-02-16T12:13:47;8.85;;;3.72;;
36597;SDS011;22607;49.550;11.940;2024-02-16T12:16:14;9.18;;;3.65;;
36597;SDS011;22607;49.550;11.940;2024-02-16T12:18:41;10.02;;;3.80;;
36597;SDS011;22607;49.550;11.940;2024-02-16T12:21:08;8.43;;;3.30;;
36597;SDS011;22607;49.550;11.940;2024-02-16T12:23:38;9.60;;;4.03;;
36597;SDS011;22607;49.550;11.940;2024-02-16T12:26:05;9.93;;;4.20;;
36597;SDS011;22607;49.550;11.940;2024-02-16T12:28:31;9.32;;;4.05;;
36597;SDS011;22607;49.550;11.940;2024-02-16T12:30:59;10.98;;;3.88;;
36597;SDS011;22607;49.550;11.940;2024-02-16T12:33:29;8.45;;;3.10;;
36597;SDS011;22607;49.550;11.940;2024-02-16T12:35:56;8.35;;;3.58;;
36597;SDS011;22607;49.550;11.940;2024-02-16T12:38:23;9.93;;;4.18;;
36597;SDS011;22607;49.550;11.940;2024-02-16T12:40:51;10.48;;;3.72;;
36597;SDS011;22607;49.550;11.940;2024-02-16T12:43:18;8.43;;;3.45;;
36597;SDS011;22607;49.550;11.940;2024-02-16T12:45:47;8.45;;;3.60;;
36597;SDS011;22607;49.550;11.940;2024-02-16T12:48:16;9.93;;;4.03;;
36597;SDS011;22607;49.550;11.940;2024-02-16T12:50:43;7.72;;;3.42;;
36597;SDS011;22607;49.550;11.940;2024-02-16T12:53:17;8.27;;;3.80;;
36597;SDS011;22607;49.550;11.940;2024-02-16T12:55:45;10.15;;;3.92;;
36597;SDS011;22607;49.550;11.940;2024-02-16T12:58:13;11.82;;;4.25;;
36597;SDS011;22607;49.550;11.940;2024-02-16T13:00:43;9.63;;;4.10;;
36597;SDS011;22607;49.550;11.940;2024-02-16T13:03:10;9.55;;;3.88;;
36597;SDS011;22607;49.550;11.940;2024-02-16T13:05:37;8.63;;;3.80;;
36597;SDS011;22607;49.550;11.940;2024-02-16T13:08:07;9.40;;;3.80;;
36597;SDS011;22607;49.550;11.940;2024-02-16T13:10:34;9.27;;;4.10;;
36597;SDS011;22607;49.550;11.940;2024-02-16T13:13:00;11.85;;;5.28;;
36597;SDS011;22607;49.550;11.940;2024-02-16T13:15:29;9.43;;;5.03;;
36597;SDS011;22607;49.550;11.940;2024-02-16T13:17:56;11.52;;;5.07;;
36597;SDS011;22607;49.550;11.940;2024-02-16T13:20:24;10.40;;;4.90;;
36597;SDS011;22607;49.550;11.940;2024-02-16T13:22:52;10.75;;;4.43;;
36597;SDS011;22607;49.550;11.940;2024-02-16T13:25:20;10.55;;;4.50;;
36597;SDS011;22607;49.550;11.940;2024-02-16T13:27:48;9.88;;;3.72;;
36597;SDS011;22607;49.550;11.940;2024-02-16T13:30:17;9.68;;;4.05;;
36597;SDS011;22607;49.550;11.940;2024-02-16T13:32:44;7.82;;;3.08;;
36597;SDS011;22607;49.550;11.940;2024-02-16T13:35:13;10.20;;;3.90;;
36597;SDS011;22607;49.550;11.940;2024-02-16T13:37:46;8.40;;;3.65;;
36597;SDS011;22607;49.550;11.940;2024-02-16T13:40:13;9.35;;;3.83;;
36597;SDS011;22607;49.550;11.940;2024-02-16T13:42:41;9.73;;;4.30;;
36597;SDS011;22607;49.550;11.940;2024-02-16T13:45:10;9.23;;;4.18;;
36597;SDS011;22607;49.550;11.940;2024-02-16T13:47:37;10.30;;;4.80;;
36597;SDS011;22607;49.550;11.940;2024-02-16T13:50:06;9.65;;;4.60;;
36597;SDS011;22607;49.550;11.940;2024-02-16T13:52:35;8.85;;;4.13;;
36597;SDS011;22607;49.550;11.940;2024-02-16T13:55:02;9.38;;;4.10;;
36597;SDS011;22607;49.550;11.940;2024-02-16T13:57:29;10.30;;;3.60;;
36597;SDS011;22607;49.550;11.940;2024-02-16T13:59:55;9.15;;;3.80;;
36597;SDS011;22607;49.550;11.940;2024-02-16T14:04:53;8.27;;;3.05;;
36597;SDS011;22607;49.550;11.940;2024-02-16T14:07:30;9.00;;;3.25;;
36597;SDS011;22607;49.550;11.940;2024-02-16T14:10:03;7.95;;;3.30;;
36597;SDS011;22607;49.550;11.940;2024-02-16T14:12:30;8.70;;;3.30;;
36597;SDS011;22607;49.550;11.940;2024-02-16T14:14:56;9.63;;;4.00;;
36597;SDS011;22607;49.550;11.940;2024-02-16T14:17:23;8.48;;;3.40;;
36597;SDS011;22607;49.550;11.940;2024-02-16T14:19:56;8.15;;;3.53;;
36597;SDS011;22607;49.550;11.940;2024-02-16T14:22:24;8.35;;;3.75;;
36597;SDS011;22607;49.550;11.940;2024-02-16T14:24:51;9.73;;;3.95;;
36597;SDS011;22607;49.550;11.940;2024-02-16T14:27:18;8.70;;;3.60;;
36597;SDS011;22607;49.550;11.940;2024-02-16T14:29:45;8.18;;;3.80;;
36597;SDS011;22607;49.550;11.940;2024-02-16T14:32:12;8.38;;;3.97;;
36597;SDS011;22607;49.550;11.940;2024-02-16T14:34:39;9.60;;;3.67;;
36597;SDS011;22607;49.550;11.940;2024-02-16T14:37:06;7.63;;;3.40;;
36597;SDS011;22607;49.550;11.940;2024-02-16T14:39:33;8.30;;;3.70;;
36597;SDS011;22607;49.550;11.940;2024-02-16T14:42:00;8.60;;;3.60;;